sensor_id;sensor_type;location;lat;lon;timestamp;P1;durP1;ratioP1;P2;durP2;ratioP2
64498;SDS011;51087;55.718;21.122;2023-08-21T00:00:30;10.48;;;7.15;;
64498;SDS011;51087;55.718;21.122;2023-08-21T00:02:55;12.73;;;9.15;;
64498;SDS011;51087;55.718;21.122;2023-08-21T00:05:20;12.93;;;10.57;;
64498;SDS011;51087;55.718;21.122;2023-08-21T00:07:46;12.43;;;8.95;;
64498;SDS011;51087;55.718;21.122;2023-08-21T00:10:15;11.02;;;8.20;;
64498;SDS011;51087;55.718;21.122;2023-08-21T00:12:41;15.30;;;9.07;;
64498;SDS011;51087;55.718;21.122;2023-08-21T00:15:07;7.03;;;5.43;;
64498;SDS011;51087;55.718;21.122;2023-08-21T00:17:34;10.52;;;7.20;;
64498;SDS011;51087;55.718;21.122;2023-08-21T00:20:00;10.02;;;7.40;;
64498;SDS011;51087;55.718;21.122;2023-08-21T00:22:25;10.57;;;7.65;;
64498;SDS011;51087;55.718;21.122;2023-08-21T00:24:51;10.40;;;7.55;;
64498;SDS011;51087;55.718;21.122;2023-08-21T00:27:16;10.93;;;7.57;;
64498;SDS011;51087;55.718;21.122;2023-08-21T00:29:41;9.20;;;6.85;;
64498;SDS011;51087;55.718;21.122;2023-08-21T00:32:07;10.93;;;8.15;;
64498;SDS011;51087;55.718;21.122;2023-08-21T00:34:32;10.38;;;7.57;;
64498;SDS011;51087;55.718;21.122;2023-08-21T00:36:58;12.98;;;9.38;;
64498;SDS011;51087;55.718;21.122;2023-08-21T00:39:23;10.02;;;7.38;;
64498;SDS011;51087;55.718;21.122;2023-08-21T00:41:48;10.88;;;8.52;;
64498;SDS011;51087;55.718;21.122;2023-08-21T00:44:14;7.80;;;5.60;;
64498;SDS011;51087;55.718;21.122;2023-08-21T00:46:39;9.80;;;7.38;;
64498;SDS011;51087;55.718;21.122;2023-08-21T00:49:05;8.40;;;6.22;;
64498;SDS011;51087;55.718;21.122;2023-08-21T00:51:31;6.60;;;5.20;;
64498;SDS011;51087;55.718;21.122;2023-08-21T00:53:57;13.02;;;9.32;;
64498;SDS011;51087;55.718;21.122;2023-08-21T00:56:23;13.57;;;9.50;;
64498;SDS011;51087;55.718;21.122;2023-08-21T00:58:49;13.10;;;9.32;;
64498;SDS011;51087;55.718;21.122;2023-08-21T01:01:14;11.13;;;7.65;;
64498;SDS011;51087;55.718;21.122;2023-08-21T01:03:43;11.70;;;8.68;;
64498;SDS011;51087;55.718;21.122;2023-08-21T01:06:09;11.10;;;8.05;;
64498;SDS011;51087;55.718;21.122;2023-08-21T01:11:08;9.93;;;8.25;;
64498;SDS011;51087;55.718;21.122;2023-08-21T01:16:08;8.90;;;5.60;;
64498;SDS011;51087;55.718;21.122;2023-08-21T01:18:34;9.02;;;6.90;;
64498;SDS011;51087;55.718;21.122;2023-08-21T01:21:02;7.85;;;6.03;;
64498;SDS011;51087;55.718;21.122;2023-08-21T01:23:30;7.90;;;6.45;;
64498;SDS011;51087;55.718;21.122;2023-08-21T01:26:02;8.73;;;6.47;;
64498;SDS011;51087;55.718;21.122;2023-08-21T01:28:28;9.27;;;6.78;;
64498;SDS011;51087;55.718;21.122;2023-08-21T01:30:57;7.45;;;6.35;;
64498;SDS011;51087;55.718;21.122;2023-08-21T01:33:28;7.72;;;5.78;;
64498;SDS011;51087;55.718;21.122;2023-08-21T01:35:56;6.25;;;4.90;;
64498;SDS011;51087;55.718;21.122;2023-08-21T01:38:23;7.53;;;5.03;;
64498;SDS011;51087;55.718;21.122;2023-08-21T01:40:49;6.95;;;4.95;;
64498;SDS011;51087;55.718;21.122;2023-08-21T01:43:14;8.82;;;6.10;;
64498;SDS011;51087;55.718;21.122;2023-08-21T01:45:40;7.75;;;6.00;;
64498;SDS011;51087;55.718;21.122;2023-08-21T01:48:05;12.07;;;6.55;;
64498;SDS011;51087;55.718;21.122;2023-08-21T01:50:31;6.90;;;4.53;;
64498;SDS011;51087;55.718;21.122;2023-08-21T01:52:56;7.53;;;5.30;;
64498;SDS011;51087;55.718;21.122;2023-08-21T01:55:22;6.97;;;5.97;;
64498;SDS011;51087;55.718;21.122;2023-08-21T01:57:47;9.20;;;7.00;;
64498;SDS011;51087;55.718;21.122;2023-08-21T02:00:13;10.82;;;8.30;;
64498;SDS011;51087;55.718;21.122;2023-08-21T02:02:38;12.13;;;8.13;;
64498;SDS011;51087;55.718;21.122;2023-08-21T02:05:04;10.13;;;7.07;;
64498;SDS011;51087;55.718;21.122;2023-08-21T02:07:30;12.68;;;7.97;;
64498;SDS011;51087;55.718;21.122;2023-08-21T02:09:55;7.32;;;5.93;;
64498;SDS011;51087;55.718;21.122;2023-08-21T02:12:21;9.82;;;6.53;;
64498;SDS011;51087;55.718;21.122;2023-08-21T02:14:46;7.28;;;4.95;;
64498;SDS011;51087;55.718;21.122;2023-08-21T02:17:11;6.50;;;4.47;;
64498;SDS011;51087;55.718;21.122;2023-08-21T02:19:37;6.97;;;4.40;;
64498;SDS011;51087;55.718;21.122;2023-08-21T02:22:02;8.98;;;5.45;;
64498;SDS011;51087;55.718;21.122;2023-08-21T02:24:28;8.57;;;5.40;;
64498;SDS011;51087;55.718;21.122;2023-08-21T02:26:53;7.55;;;5.45;;
64498;SDS011;51087;55.718;21.122;2023-08-21T02:29:19;11.15;;;5.30;;
64498;SDS011;51087;55.718;21.122;2023-08-21T02:31:44;6.63;;;4.97;;
64498;SDS011;51087;55.718;21.122;2023-08-21T02:34:09;14.25;;;5.50;;
64498;SDS011;51087;55.718;21.122;2023-08-21T02:36:35;7.18;;;5.10;;
64498;SDS011;51087;55.718;21.122;2023-08-21T02:39:00;5.22;;;3.47;;
64498;SDS011;51087;55.718;21.122;2023-08-21T02:41:26;5.03;;;3.58;;
64498;SDS011;51087;55.718;21.122;2023-08-21T02:43:51;5.80;;;3.50;;
64498;SDS011;51087;55.718;21.122;2023-08-21T02:46:17;8.65;;;4.07;;
64498;SDS011;51087;55.718;21.122;2023-08-21T02:48:42;5.10;;;4.03;;
64498;SDS011;51087;55.718;21.122;2023-08-21T02:51:08;11.48;;;4.07;;
64498;SDS011;51087;55.718;21.122;2023-08-21T02:53:33;5.15;;;3.75;;
64498;SDS011;51087;55.718;21.122;2023-08-21T02:55:58;9.15;;;4.00;;
64498;SDS011;51087;55.718;21.122;2023-08-21T02:58:24;4.80;;;3.97;;
64498;SDS011;51087;55.718;21.122;2023-08-21T03:00:49;6.53;;;3.75;;
64498;SDS011;51087;55.718;21.122;2023-08-21T03:03:15;7.70;;;4.00;;
64498;SDS011;51087;55.718;21.122;2023-08-21T03:05:40;6.22;;;3.58;;
64498;SDS011;51087;55.718;21.122;2023-08-21T03:08:05;4.88;;;3.60;;
64498;SDS011;51087;55.718;21.122;2023-08-21T03:10:31;5.13;;;4.05;;
64498;SDS011;51087;55.718;21.122;2023-08-21T03:12:58;6.25;;;3.65;;
64498;SDS011;51087;55.718;21.122;2023-08-21T03:15:24;7.82;;;3.85;;
64498;SDS011;51087;55.718;21.122;2023-08-21T03:17:50;4.13;;;3.55;;
64498;SDS011;51087;55.718;21.122;2023-08-21T03:20:15;9.48;;;4.07;;
64498;SDS011;51087;55.718;21.122;2023-08-21T03:22:42;6.45;;;4.35;;
64498;SDS011;51087;55.718;21.122;2023-08-21T03:25:08;13.85;;;4.53;;
64498;SDS011;51087;55.718;21.122;2023-08-21T03:27:34;9.80;;;4.25;;
64498;SDS011;51087;55.718;21.122;2023-08-21T03:30:04;7.03;;;4.80;;
64498;SDS011;51087;55.718;21.122;2023-08-21T03:32:30;6.63;;;4.30;;
64498;SDS011;51087;55.718;21.122;2023-08-21T03:34:55;8.05;;;4.40;;
64498;SDS011;51087;55.718;21.122;2023-08-21T03:37:21;5.20;;;4.38;;
64498;SDS011;51087;55.718;21.122;2023-08-21T03:39:46;8.07;;;4.32;;
64498;SDS011;51087;55.718;21.122;2023-08-21T03:42:12;5.70;;;3.95;;
64498;SDS011;51087;55.718;21.122;2023-08-21T03:44:37;7.80;;;4.07;;
64498;SDS011;51087;55.718;21.122;2023-08-21T03:47:04;8.48;;;3.80;;
64498;SDS011;51087;55.718;21.122;2023-08-21T03:49:29;5.63;;;3.88;;
64498;SDS011;51087;55.718;21.122;2023-08-21T03:51:55;4.13;;;3.10;;
64498;SDS011;51087;55.718;21.122;2023-08-21T03:54:20;6.60;;;3.83;;
64498;SDS011;51087;55.718;21.122;2023-08-21T03:56:45;3.97;;;3.08;;
64498;SDS011;51087;55.718;21.122;2023-08-21T03:59:11;6.32;;;3.45;;
64498;SDS011;51087;55.718;21.122;2023-08-21T04:01:36;9.45;;;3.67;;
64498;SDS011;51087;55.718;21.122;2023-08-21T04:04:02;6.60;;;3.90;;
64498;SDS011;51087;55.718;21.122;2023-08-21T04:06:27;6.45;;;4.00;;
64498;SDS011;51087;55.718;21.122;2023-08-21T04:08:53;8.02;;;4.07;;
64498;SDS011;51087;55.718;21.122;2023-08-21T04:11:18;5.50;;;3.70;;
64498;SDS011;51087;55.718;21.122;2023-08-21T04:13:43;5.35;;;4.40;;
64498;SDS011;51087;55.718;21.122;2023-08-21T04:16:09;6.35;;;4.30;;
64498;SDS011;51087;55.718;21.122;2023-08-21T04:18:35;6.10;;;4.28;;
64498;SDS011;51087;55.718;21.122;2023-08-21T04:21:02;5.05;;;3.83;;
64498;SDS011;51087;55.718;21.122;2023-08-21T04:23:27;2.78;;;2.22;;
64498;SDS011;51087;55.718;21.122;2023-08-21T04:25:52;5.30;;;3.15;;
64498;SDS011;51087;55.718;21.122;2023-08-21T04:28:18;5.05;;;3.20;;
64498;SDS011;51087;55.718;21.122;2023-08-21T04:30:43;6.05;;;3.20;;
64498;SDS011;51087;55.718;21.122;2023-08-21T04:33:09;3.45;;;2.83;;
64498;SDS011;51087;55.718;21.122;2023-08-21T04:35:37;10.48;;;3.13;;
64498;SDS011;51087;55.718;21.122;2023-08-21T04:38:03;4.40;;;2.80;;
64498;SDS011;51087;55.718;21.122;2023-08-21T04:40:29;4.68;;;2.85;;
64498;SDS011;51087;55.718;21.122;2023-08-21T04:42:54;9.35;;;3.28;;
64498;SDS011;51087;55.718;21.122;2023-08-21T04:45:20;4.40;;;3.30;;
64498;SDS011;51087;55.718;21.122;2023-08-21T04:47:45;5.38;;;2.78;;
64498;SDS011;51087;55.718;21.122;2023-08-21T04:50:11;3.28;;;2.63;;
64498;SDS011;51087;55.718;21.122;2023-08-21T04:52:37;4.00;;;2.70;;
64498;SDS011;51087;55.718;21.122;2023-08-21T04:55:02;4.88;;;3.30;;
64498;SDS011;51087;55.718;21.122;2023-08-21T04:57:28;5.25;;;3.33;;
64498;SDS011;51087;55.718;21.122;2023-08-21T04:59:53;5.82;;;3.28;;
64498;SDS011;51087;55.718;21.122;2023-08-21T05:02:19;6.95;;;2.80;;
64498;SDS011;51087;55.718;21.122;2023-08-21T05:04:44;4.05;;;2.42;;
64498;SDS011;51087;55.718;21.122;2023-08-21T05:07:10;6.57;;;2.90;;
64498;SDS011;51087;55.718;21.122;2023-08-21T05:09:35;4.28;;;2.60;;
64498;SDS011;51087;55.718;21.122;2023-08-21T05:12:00;5.75;;;3.03;;
64498;SDS011;51087;55.718;21.122;2023-08-21T05:14:26;3.85;;;2.45;;
64498;SDS011;51087;55.718;21.122;2023-08-21T05:16:51;4.13;;;2.55;;
64498;SDS011;51087;55.718;21.122;2023-08-21T05:19:17;5.60;;;2.55;;
64498;SDS011;51087;55.718;21.122;2023-08-21T05:21:43;4.00;;;2.40;;
64498;SDS011;51087;55.718;21.122;2023-08-21T05:24:09;5.00;;;2.70;;
64498;SDS011;51087;55.718;21.122;2023-08-21T05:26:35;4.70;;;2.88;;
64498;SDS011;51087;55.718;21.122;2023-08-21T05:29:01;4.72;;;2.42;;
64498;SDS011;51087;55.718;21.122;2023-08-21T05:31:26;4.57;;;2.30;;
64498;SDS011;51087;55.718;21.122;2023-08-21T05:33:52;6.32;;;2.38;;
64498;SDS011;51087;55.718;21.122;2023-08-21T05:36:17;5.68;;;2.15;;
64498;SDS011;51087;55.718;21.122;2023-08-21T05:38:44;5.47;;;2.22;;
64498;SDS011;51087;55.718;21.122;2023-08-21T05:41:11;3.53;;;2.17;;
64498;SDS011;51087;55.718;21.122;2023-08-21T05:43:36;4.30;;;2.10;;
64498;SDS011;51087;55.718;21.122;2023-08-21T05:46:02;6.72;;;2.08;;
64498;SDS011;51087;55.718;21.122;2023-08-21T05:48:30;3.90;;;1.95;;
64498;SDS011;51087;55.718;21.122;2023-08-21T05:50:55;2.38;;;1.95;;
64498;SDS011;51087;55.718;21.122;2023-08-21T05:53:22;3.80;;;2.17;;
64498;SDS011;51087;55.718;21.122;2023-08-21T05:55:47;4.53;;;2.15;;
64498;SDS011;51087;55.718;21.122;2023-08-21T05:58:13;3.00;;;1.48;;
64498;SDS011;51087;55.718;21.122;2023-08-21T06:00:38;7.30;;;2.45;;
64498;SDS011;51087;55.718;21.122;2023-08-21T06:03:04;5.13;;;2.00;;
64498;SDS011;51087;55.718;21.122;2023-08-21T06:05:30;3.40;;;1.67;;
64498;SDS011;51087;55.718;21.122;2023-08-21T06:07:55;5.38;;;1.90;;
64498;SDS011;51087;55.718;21.122;2023-08-21T06:10:21;5.95;;;2.17;;
64498;SDS011;51087;55.718;21.122;2023-08-21T06:12:46;10.15;;;2.28;;
64498;SDS011;51087;55.718;21.122;2023-08-21T06:15:13;5.75;;;2.50;;
64498;SDS011;51087;55.718;21.122;2023-08-21T06:17:38;8.40;;;2.60;;
64498;SDS011;51087;55.718;21.122;2023-08-21T06:20:05;11.32;;;2.58;;
64498;SDS011;51087;55.718;21.122;2023-08-21T06:22:33;9.70;;;2.50;;
64498;SDS011;51087;55.718;21.122;2023-08-21T06:24:58;3.85;;;2.30;;
64498;SDS011;51087;55.718;21.122;2023-08-21T06:27:24;5.82;;;2.60;;
64498;SDS011;51087;55.718;21.122;2023-08-21T06:29:49;3.45;;;2.90;;
64498;SDS011;51087;55.718;21.122;2023-08-21T06:32:15;8.00;;;3.20;;
64498;SDS011;51087;55.718;21.122;2023-08-21T06:34:40;4.70;;;3.05;;
64498;SDS011;51087;55.718;21.122;2023-08-21T06:37:05;16.42;;;3.50;;
64498;SDS011;51087;55.718;21.122;2023-08-21T06:39:31;13.68;;;3.28;;
64498;SDS011;51087;55.718;21.122;2023-08-21T06:41:57;5.78;;;3.30;;
64498;SDS011;51087;55.718;21.122;2023-08-21T06:44:23;8.60;;;4.00;;
64498;SDS011;51087;55.718;21.122;2023-08-21T06:46:48;4.70;;;3.70;;
64498;SDS011;51087;55.718;21.122;2023-08-21T06:49:13;8.18;;;3.40;;
64498;SDS011;51087;55.718;21.122;2023-08-21T06:51:39;7.00;;;4.05;;
64498;SDS011;51087;55.718;21.122;2023-08-21T06:54:04;5.50;;;3.40;;
64498;SDS011;51087;55.718;21.122;2023-08-21T06:56:30;6.50;;;3.88;;
64498;SDS011;51087;55.718;21.122;2023-08-21T06:58:55;5.97;;;3.47;;
64498;SDS011;51087;55.718;21.122;2023-08-21T07:01:21;6.75;;;3.50;;
64498;SDS011;51087;55.718;21.122;2023-08-21T07:03:46;15.98;;;3.88;;
64498;SDS011;51087;55.718;21.122;2023-08-21T07:06:12;4.60;;;3.70;;
64498;SDS011;51087;55.718;21.122;2023-08-21T07:08:38;9.40;;;3.55;;
64498;SDS011;51087;55.718;21.122;2023-08-21T07:11:05;16.67;;;4.53;;
64498;SDS011;51087;55.718;21.122;2023-08-21T07:13:32;18.25;;;4.88;;
64498;SDS011;51087;55.718;21.122;2023-08-21T07:15:58;14.38;;;5.43;;
64498;SDS011;51087;55.718;21.122;2023-08-21T07:18:27;10.30;;;4.57;;
64498;SDS011;51087;55.718;21.122;2023-08-21T07:20:52;6.20;;;3.60;;
64498;SDS011;51087;55.718;21.122;2023-08-21T07:23:18;6.10;;;3.70;;
64498;SDS011;51087;55.718;21.122;2023-08-21T07:25:44;10.98;;;4.15;;
64498;SDS011;51087;55.718;21.122;2023-08-21T07:28:11;6.05;;;3.38;;
64498;SDS011;51087;55.718;21.122;2023-08-21T07:30:37;7.75;;;3.65;;
64498;SDS011;51087;55.718;21.122;2023-08-21T07:33:03;8.30;;;3.70;;
64498;SDS011;51087;55.718;21.122;2023-08-21T07:35:30;5.97;;;3.20;;
64498;SDS011;51087;55.718;21.122;2023-08-21T07:37:56;4.85;;;3.10;;
64498;SDS011;51087;55.718;21.122;2023-08-21T07:40:24;4.45;;;2.90;;
64498;SDS011;51087;55.718;21.122;2023-08-21T07:42:50;6.85;;;2.85;;
64498;SDS011;51087;55.718;21.122;2023-08-21T07:45:16;5.13;;;2.70;;
64498;SDS011;51087;55.718;21.122;2023-08-21T07:47:41;6.28;;;2.78;;
64498;SDS011;51087;55.718;21.122;2023-08-21T07:50:08;8.90;;;2.88;;
64498;SDS011;51087;55.718;21.122;2023-08-21T07:52:34;11.85;;;3.00;;
64498;SDS011;51087;55.718;21.122;2023-08-21T07:55:01;10.85;;;3.08;;
64498;SDS011;51087;55.718;21.122;2023-08-21T07:57:31;8.70;;;2.70;;
64498;SDS011;51087;55.718;21.122;2023-08-21T07:59:56;8.50;;;3.30;;
64498;SDS011;51087;55.718;21.122;2023-08-21T08:02:22;7.82;;;3.10;;
64498;SDS011;51087;55.718;21.122;2023-08-21T08:04:48;6.72;;;2.70;;
64498;SDS011;51087;55.718;21.122;2023-08-21T08:07:14;7.72;;;3.13;;
64498;SDS011;51087;55.718;21.122;2023-08-21T08:09:39;9.02;;;3.20;;
64498;SDS011;51087;55.718;21.122;2023-08-21T08:12:05;6.65;;;2.75;;
64498;SDS011;51087;55.718;21.122;2023-08-21T08:14:32;2.70;;;2.13;;
64498;SDS011;51087;55.718;21.122;2023-08-21T08:16:57;4.57;;;3.22;;
64498;SDS011;51087;55.718;21.122;2023-08-21T08:19:27;4.95;;;3.40;;
64498;SDS011;51087;55.718;21.122;2023-08-21T08:21:53;4.07;;;2.90;;
64498;SDS011;51087;55.718;21.122;2023-08-21T08:24:18;4.75;;;2.78;;
64498;SDS011;51087;55.718;21.122;2023-08-21T08:26:44;6.65;;;3.10;;
64498;SDS011;51087;55.718;21.122;2023-08-21T08:29:10;7.45;;;4.03;;
64498;SDS011;51087;55.718;21.122;2023-08-21T08:31:36;7.07;;;3.70;;
64498;SDS011;51087;55.718;21.122;2023-08-21T08:34:03;8.23;;;3.90;;
64498;SDS011;51087;55.718;21.122;2023-08-21T08:36:29;5.60;;;4.30;;
64498;SDS011;51087;55.718;21.122;2023-08-21T08:38:54;5.13;;;2.65;;
64498;SDS011;51087;55.718;21.122;2023-08-21T08:41:30;5.63;;;3.47;;
64498;SDS011;51087;55.718;21.122;2023-08-21T08:44:02;6.43;;;3.75;;
64498;SDS011;51087;55.718;21.122;2023-08-21T08:46:29;8.38;;;4.22;;
64498;SDS011;51087;55.718;21.122;2023-08-21T08:48:55;4.75;;;3.63;;
64498;SDS011;51087;55.718;21.122;2023-08-21T08:51:24;6.43;;;3.72;;
64498;SDS011;51087;55.718;21.122;2023-08-21T08:53:50;6.45;;;3.58;;
64498;SDS011;51087;55.718;21.122;2023-08-21T08:56:15;6.95;;;4.20;;
64498;SDS011;51087;55.718;21.122;2023-08-21T08:58:41;6.03;;;3.35;;
64498;SDS011;51087;55.718;21.122;2023-08-21T09:01:08;5.35;;;2.92;;
64498;SDS011;51087;55.718;21.122;2023-08-21T09:03:35;5.50;;;3.40;;
64498;SDS011;51087;55.718;21.122;2023-08-21T09:06:01;6.25;;;2.53;;
64498;SDS011;51087;55.718;21.122;2023-08-21T09:08:26;7.60;;;3.90;;
64498;SDS011;51087;55.718;21.122;2023-08-21T09:10:52;4.47;;;3.30;;
64498;SDS011;51087;55.718;21.122;2023-08-21T09:13:19;5.53;;;3.60;;
64498;SDS011;51087;55.718;21.122;2023-08-21T09:15:46;5.72;;;3.80;;
64498;SDS011;51087;55.718;21.122;2023-08-21T09:18:13;5.88;;;3.90;;
64498;SDS011;51087;55.718;21.122;2023-08-21T09:20:42;6.22;;;3.40;;
64498;SDS011;51087;55.718;21.122;2023-08-21T09:23:08;5.32;;;3.20;;
64498;SDS011;51087;55.718;21.122;2023-08-21T09:25:38;3.25;;;2.50;;
64498;SDS011;51087;55.718;21.122;2023-08-21T09:28:07;5.32;;;3.25;;
64498;SDS011;51087;55.718;21.122;2023-08-21T09:30:43;2.95;;;2.15;;
64498;SDS011;51087;55.718;21.122;2023-08-21T09:33:11;10.40;;;3.60;;
64498;SDS011;51087;55.718;21.122;2023-08-21T09:35:37;4.78;;;3.42;;
64498;SDS011;51087;55.718;21.122;2023-08-21T09:38:04;6.63;;;3.65;;
64498;SDS011;51087;55.718;21.122;2023-08-21T09:40:30;5.95;;;3.08;;
64498;SDS011;51087;55.718;21.122;2023-08-21T09:42:55;6.20;;;3.58;;
64498;SDS011;51087;55.718;21.122;2023-08-21T09:45:22;5.40;;;3.03;;
64498;SDS011;51087;55.718;21.122;2023-08-21T09:47:48;8.65;;;3.40;;
64498;SDS011;51087;55.718;21.122;2023-08-21T09:50:14;6.22;;;3.65;;
64498;SDS011;51087;55.718;21.122;2023-08-21T09:52:42;7.70;;;3.30;;
64498;SDS011;51087;55.718;21.122;2023-08-21T09:55:09;8.50;;;3.15;;
64498;SDS011;51087;55.718;21.122;2023-08-21T09:57:36;4.25;;;2.25;;
64498;SDS011;51087;55.718;21.122;2023-08-21T10:00:02;6.20;;;2.38;;
64498;SDS011;51087;55.718;21.122;2023-08-21T10:02:40;4.32;;;2.60;;
64498;SDS011;51087;55.718;21.122;2023-08-21T10:05:10;6.53;;;2.88;;
64498;SDS011;51087;55.718;21.122;2023-08-21T10:07:38;10.80;;;3.30;;
64498;SDS011;51087;55.718;21.122;2023-08-21T10:10:04;13.45;;;3.40;;
64498;SDS011;51087;55.718;21.122;2023-08-21T10:12:30;4.07;;;1.98;;
64498;SDS011;51087;55.718;21.122;2023-08-21T10:14:55;3.70;;;2.33;;
64498;SDS011;51087;55.718;21.122;2023-08-21T10:17:21;6.50;;;3.65;;
64498;SDS011;51087;55.718;21.122;2023-08-21T10:19:52;9.10;;;3.47;;
64498;SDS011;51087;55.718;21.122;2023-08-21T10:25:16;9.15;;;3.47;;
64498;SDS011;51087;55.718;21.122;2023-08-21T10:27:44;4.00;;;2.00;;
64498;SDS011;51087;55.718;21.122;2023-08-21T10:30:15;10.85;;;3.00;;
64498;SDS011;51087;55.718;21.122;2023-08-21T10:32:45;5.93;;;3.75;;
64498;SDS011;51087;55.718;21.122;2023-08-21T10:35:31;7.32;;;3.05;;
64498;SDS011;51087;55.718;21.122;2023-08-21T10:38:10;6.28;;;2.90;;
64498;SDS011;51087;55.718;21.122;2023-08-21T10:43:45;11.30;;;3.88;;
64498;SDS011;51087;55.718;21.122;2023-08-21T10:46:11;4.82;;;2.50;;
64498;SDS011;51087;55.718;21.122;2023-08-21T10:48:39;5.78;;;2.88;;
64498;SDS011;51087;55.718;21.122;2023-08-21T10:51:05;5.15;;;3.08;;
64498;SDS011;51087;55.718;21.122;2023-08-21T10:53:37;3.85;;;2.97;;
64498;SDS011;51087;55.718;21.122;2023-08-21T10:56:05;4.63;;;3.08;;
64498;SDS011;51087;55.718;21.122;2023-08-21T10:58:34;5.43;;;2.97;;
64498;SDS011;51087;55.718;21.122;2023-08-21T11:01:03;5.07;;;3.08;;
64498;SDS011;51087;55.718;21.122;2023-08-21T11:03:28;4.05;;;2.25;;
64498;SDS011;51087;55.718;21.122;2023-08-21T11:06:09;5.32;;;3.20;;
64498;SDS011;51087;55.718;21.122;2023-08-21T11:09:27;5.70;;;3.30;;
64498;SDS011;51087;55.718;21.122;2023-08-21T11:11:52;5.65;;;2.70;;
64498;SDS011;51087;55.718;21.122;2023-08-21T11:14:18;12.43;;;3.60;;
64498;SDS011;51087;55.718;21.122;2023-08-21T11:16:50;2.85;;;2.15;;
64498;SDS011;51087;55.718;21.122;2023-08-21T11:19:16;7.20;;;3.03;;
64498;SDS011;51087;55.718;21.122;2023-08-21T11:21:42;7.20;;;3.10;;
64498;SDS011;51087;55.718;21.122;2023-08-21T11:24:08;6.93;;;3.40;;
64498;SDS011;51087;55.718;21.122;2023-08-21T11:26:33;8.27;;;3.53;;
64498;SDS011;51087;55.718;21.122;2023-08-21T11:28:59;8.75;;;3.70;;
64498;SDS011;51087;55.718;21.122;2023-08-21T11:31:27;4.40;;;2.63;;
64498;SDS011;51087;55.718;21.122;2023-08-21T11:33:52;7.18;;;3.80;;
64498;SDS011;51087;55.718;21.122;2023-08-21T11:36:18;8.13;;;3.70;;
64498;SDS011;51087;55.718;21.122;2023-08-21T11:38:57;8.60;;;4.43;;
64498;SDS011;51087;55.718;21.122;2023-08-21T11:41:25;11.13;;;4.25;;
64498;SDS011;51087;55.718;21.122;2023-08-21T11:43:51;9.65;;;4.15;;
64498;SDS011;51087;55.718;21.122;2023-08-21T11:46:18;10.75;;;4.10;;
64498;SDS011;51087;55.718;21.122;2023-08-21T11:48:44;8.95;;;4.13;;
64498;SDS011;51087;55.718;21.122;2023-08-21T11:51:10;4.93;;;2.85;;
64498;SDS011;51087;55.718;21.122;2023-08-21T11:53:39;8.25;;;4.20;;
64498;SDS011;51087;55.718;21.122;2023-08-21T11:56:10;9.07;;;4.40;;
64498;SDS011;51087;55.718;21.122;2023-08-21T11:58:38;6.68;;;4.38;;
64498;SDS011;51087;55.718;21.122;2023-08-21T12:01:07;7.95;;;4.20;;
64498;SDS011;51087;55.718;21.122;2023-08-21T12:03:36;9.77;;;4.93;;
64498;SDS011;51087;55.718;21.122;2023-08-21T12:06:10;8.68;;;4.82;;
64498;SDS011;51087;55.718;21.122;2023-08-21T12:08:38;9.05;;;5.00;;
64498;SDS011;51087;55.718;21.122;2023-08-21T12:11:04;9.02;;;4.75;;
64498;SDS011;51087;55.718;21.122;2023-08-21T12:13:30;5.82;;;3.67;;
64498;SDS011;51087;55.718;21.122;2023-08-21T12:15:56;9.63;;;4.70;;
64498;SDS011;51087;55.718;21.122;2023-08-21T12:18:22;7.68;;;4.60;;
64498;SDS011;51087;55.718;21.122;2023-08-21T12:20:49;7.35;;;5.03;;
64498;SDS011;51087;55.718;21.122;2023-08-21T12:23:14;7.95;;;4.93;;
64498;SDS011;51087;55.718;21.122;2023-08-21T12:25:40;8.70;;;4.90;;
64498;SDS011;51087;55.718;21.122;2023-08-21T12:28:06;8.55;;;4.05;;
64498;SDS011;51087;55.718;21.122;2023-08-21T12:30:33;8.65;;;2.92;;
64498;SDS011;51087;55.718;21.122;2023-08-21T12:32:59;6.65;;;3.35;;
64498;SDS011;51087;55.718;21.122;2023-08-21T12:35:24;9.70;;;3.97;;
64498;SDS011;51087;55.718;21.122;2023-08-21T12:37:49;6.55;;;3.47;;
64498;SDS011;51087;55.718;21.122;2023-08-21T12:40:15;10.25;;;3.80;;
64498;SDS011;51087;55.718;21.122;2023-08-21T12:42:40;9.05;;;3.40;;
64498;SDS011;51087;55.718;21.122;2023-08-21T12:45:06;6.65;;;3.45;;
64498;SDS011;51087;55.718;21.122;2023-08-21T12:47:32;10.30;;;3.58;;
64498;SDS011;51087;55.718;21.122;2023-08-21T12:49:58;5.47;;;3.50;;
64498;SDS011;51087;55.718;21.122;2023-08-21T12:52:23;7.45;;;3.42;;
64498;SDS011;51087;55.718;21.122;2023-08-21T12:54:49;12.38;;;3.50;;
64498;SDS011;51087;55.718;21.122;2023-08-21T12:57:14;4.57;;;3.00;;
64498;SDS011;51087;55.718;21.122;2023-08-21T12:59:41;9.10;;;3.20;;
64498;SDS011;51087;55.718;21.122;2023-08-21T13:02:08;7.47;;;3.53;;
64498;SDS011;51087;55.718;21.122;2023-08-21T13:04:33;7.25;;;3.30;;
64498;SDS011;51087;55.718;21.122;2023-08-21T13:06:58;5.25;;;3.22;;
64498;SDS011;51087;55.718;21.122;2023-08-21T13:09:25;9.60;;;2.97;;
64498;SDS011;51087;55.718;21.122;2023-08-21T13:11:51;7.65;;;2.90;;
64498;SDS011;51087;55.718;21.122;2023-08-21T13:14:16;13.15;;;3.47;;
64498;SDS011;51087;55.718;21.122;2023-08-21T13:16:41;6.65;;;2.90;;
64498;SDS011;51087;55.718;21.122;2023-08-21T13:19:07;7.82;;;3.22;;
64498;SDS011;51087;55.718;21.122;2023-08-21T13:21:32;5.50;;;2.95;;
64498;SDS011;51087;55.718;21.122;2023-08-21T13:23:58;7.75;;;3.20;;
64498;SDS011;51087;55.718;21.122;2023-08-21T13:26:23;7.70;;;2.72;;
64498;SDS011;51087;55.718;21.122;2023-08-21T13:28:50;7.18;;;2.80;;
64498;SDS011;51087;55.718;21.122;2023-08-21T13:31:16;11.18;;;2.72;;
64498;SDS011;51087;55.718;21.122;2023-08-21T13:33:45;8.25;;;2.90;;
64498;SDS011;51087;55.718;21.122;2023-08-21T13:36:15;11.05;;;2.80;;
64498;SDS011;51087;55.718;21.122;2023-08-21T13:38:41;5.18;;;2.80;;
64498;SDS011;51087;55.718;21.122;2023-08-21T13:41:07;3.38;;;2.25;;
64498;SDS011;51087;55.718;21.122;2023-08-21T13:43:33;7.45;;;3.00;;
64498;SDS011;51087;55.718;21.122;2023-08-21T13:46:02;7.60;;;3.25;;
64498;SDS011;51087;55.718;21.122;2023-08-21T13:48:30;4.93;;;2.70;;
64498;SDS011;51087;55.718;21.122;2023-08-21T13:50:56;4.60;;;2.47;;
64498;SDS011;51087;55.718;21.122;2023-08-21T13:53:21;5.43;;;2.78;;
64498;SDS011;51087;55.718;21.122;2023-08-21T13:55:47;6.22;;;3.03;;
64498;SDS011;51087;55.718;21.122;2023-08-21T13:58:12;7.10;;;3.17;;
64498;SDS011;51087;55.718;21.122;2023-08-21T14:00:38;7.78;;;3.17;;
64498;SDS011;51087;55.718;21.122;2023-08-21T14:03:04;6.28;;;2.90;;
64498;SDS011;51087;55.718;21.122;2023-08-21T14:05:29;6.93;;;2.75;;
64498;SDS011;51087;55.718;21.122;2023-08-21T14:07:56;6.90;;;2.78;;
64498;SDS011;51087;55.718;21.122;2023-08-21T14:10:22;5.72;;;2.97;;
64498;SDS011;51087;55.718;21.122;2023-08-21T14:12:47;7.97;;;3.30;;
64498;SDS011;51087;55.718;21.122;2023-08-21T14:15:13;12.93;;;3.22;;
64498;SDS011;51087;55.718;21.122;2023-08-21T14:17:38;7.50;;;3.17;;
64498;SDS011;51087;55.718;21.122;2023-08-21T14:20:04;5.55;;;2.90;;
64498;SDS011;51087;55.718;21.122;2023-08-21T14:22:32;9.00;;;2.88;;
64498;SDS011;51087;55.718;21.122;2023-08-21T14:24:57;9.95;;;3.15;;
64498;SDS011;51087;55.718;21.122;2023-08-21T14:27:23;9.60;;;3.08;;
64498;SDS011;51087;55.718;21.122;2023-08-21T14:29:48;8.32;;;3.05;;
64498;SDS011;51087;55.718;21.122;2023-08-21T14:32:14;10.27;;;2.95;;
64498;SDS011;51087;55.718;21.122;2023-08-21T14:34:40;6.22;;;2.85;;
64498;SDS011;51087;55.718;21.122;2023-08-21T14:37:05;4.13;;;2.50;;
64498;SDS011;51087;55.718;21.122;2023-08-21T14:39:31;8.77;;;2.50;;